sensor_id;sensor_type;location;lat;lon;timestamp;P1;durP1;ratioP1;P2;durP2;ratioP2
11135;SDS011;5622;50.840;4.948;2023-03-23T00:02:22;6.63;;;3.57;;
11135;SDS011;5622;50.840;4.948;2023-03-23T00:04:52;3.80;;;3.40;;
11135;SDS011;5622;50.840;4.948;2023-03-23T00:07:19;3.83;;;2.97;;
11135;SDS011;5622;50.840;4.948;2023-03-23T00:09:47;4.23;;;3.33;;
11135;SDS011;5622;50.840;4.948;2023-03-23T00:12:19;3.93;;;3.53;;
11135;SDS011;5622;50.840;4.948;2023-03-23T00:14:53;4.00;;;3.20;;
11135;SDS011;5622;50.840;4.948;2023-03-23T00:17:21;4.17;;;3.77;;
11135;SDS011;5622;50.840;4.948;2023-03-23T00:19:48;5.10;;;3.40;;
11135;SDS011;5622;50.840;4.948;2023-03-23T00:22:17;4.37;;;3.43;;
11135;SDS011;5622;50.840;4.948;2023-03-23T00:24:46;6.87;;;3.43;;
11135;SDS011;5622;50.840;4.948;2023-03-23T00:27:15;5.83;;;4.07;;
11135;SDS011;5622;50.840;4.948;2023-03-23T00:29:43;5.87;;;3.80;;
11135;SDS011;5622;50.840;4.948;2023-03-23T00:32:12;5.53;;;3.70;;
11135;SDS011;5622;50.840;4.948;2023-03-23T00:34:41;5.33;;;3.60;;
11135;SDS011;5622;50.840;4.948;2023-03-23T00:37:11;8.33;;;4.03;;
11135;SDS011;5622;50.840;4.948;2023-03-23T00:39:39;5.30;;;3.60;;
11135;SDS011;5622;50.840;4.948;2023-03-23T00:42:11;7.17;;;4.30;;
11135;SDS011;5622;50.840;4.948;2023-03-23T00:44:46;6.20;;;3.83;;
11135;SDS011;5622;50.840;4.948;2023-03-23T00:47:13;5.27;;;4.07;;
11135;SDS011;5622;50.840;4.948;2023-03-23T00:49:42;7.03;;;3.73;;
11135;SDS011;5622;50.840;4.948;2023-03-23T00:52:09;6.50;;;3.67;;
11135;SDS011;5622;50.840;4.948;2023-03-23T00:54:37;4.37;;;3.70;;
11135;SDS011;5622;50.840;4.948;2023-03-23T00:57:08;5.70;;;4.00;;
11135;SDS011;5622;50.840;4.948;2023-03-23T00:59:37;5.80;;;3.50;;
11135;SDS011;5622;50.840;4.948;2023-03-23T01:02:04;5.77;;;3.90;;
11135;SDS011;5622;50.840;4.948;2023-03-23T01:04:31;5.57;;;3.57;;
11135;SDS011;5622;50.840;4.948;2023-03-23T01:07:02;4.37;;;3.57;;
11135;SDS011;5622;50.840;4.948;2023-03-23T01:09:29;4.70;;;3.63;;
11135;SDS011;5622;50.840;4.948;2023-03-23T01:11:57;4.70;;;3.50;;
11135;SDS011;5622;50.840;4.948;2023-03-23T01:14:25;5.37;;;3.90;;
11135;SDS011;5622;50.840;4.948;2023-03-23T01:16:52;4.83;;;3.97;;
11135;SDS011;5622;50.840;4.948;2023-03-23T01:19:19;5.00;;;3.60;;
11135;SDS011;5622;50.840;4.948;2023-03-23T01:21:46;5.93;;;4.03;;
11135;SDS011;5622;50.840;4.948;2023-03-23T01:24:13;4.93;;;3.63;;
11135;SDS011;5622;50.840;4.948;2023-03-23T01:26:42;9.63;;;4.50;;
11135;SDS011;5622;50.840;4.948;2023-03-23T01:29:10;6.03;;;3.93;;
11135;SDS011;5622;50.840;4.948;2023-03-23T01:31:38;7.10;;;4.40;;
11135;SDS011;5622;50.840;4.948;2023-03-23T01:34:07;5.30;;;4.03;;
11135;SDS011;5622;50.840;4.948;2023-03-23T01:36:35;4.53;;;3.87;;
11135;SDS011;5622;50.840;4.948;2023-03-23T01:39:03;6.93;;;4.30;;
11135;SDS011;5622;50.840;4.948;2023-03-23T01:41:31;4.33;;;3.93;;
11135;SDS011;5622;50.840;4.948;2023-03-23T01:44:03;7.33;;;4.50;;
11135;SDS011;5622;50.840;4.948;2023-03-23T01:46:32;4.77;;;4.10;;
11135;SDS011;5622;50.840;4.948;2023-03-23T01:49:03;6.57;;;4.00;;
11135;SDS011;5622;50.840;4.948;2023-03-23T01:51:35;4.77;;;4.27;;
11135;SDS011;5622;50.840;4.948;2023-03-23T01:54:06;4.90;;;4.17;;
11135;SDS011;5622;50.840;4.948;2023-03-23T01:56:36;4.20;;;3.80;;
11135;SDS011;5622;50.840;4.948;2023-03-23T01:59:09;4.77;;;4.07;;
11135;SDS011;5622;50.840;4.948;2023-03-23T02:01:37;5.47;;;4.00;;
11135;SDS011;5622;50.840;4.948;2023-03-23T02:04:11;5.30;;;4.07;;
11135;SDS011;5622;50.840;4.948;2023-03-23T02:06:39;5.20;;;4.10;;
11135;SDS011;5622;50.840;4.948;2023-03-23T02:09:07;4.23;;;3.83;;
11135;SDS011;5622;50.840;4.948;2023-03-23T02:11:35;4.57;;;4.00;;
11135;SDS011;5622;50.840;4.948;2023-03-23T02:14:02;7.10;;;4.07;;
11135;SDS011;5622;50.840;4.948;2023-03-23T02:16:31;5.83;;;4.20;;
11135;SDS011;5622;50.840;4.948;2023-03-23T02:19:07;6.10;;;4.70;;
11135;SDS011;5622;50.840;4.948;2023-03-23T02:24:58;5.30;;;3.70;;
11135;SDS011;5622;50.840;4.948;2023-03-23T02:27:40;5.13;;;4.00;;
11135;SDS011;5622;50.840;4.948;2023-03-23T02:30:37;7.30;;;3.70;;
11135;SDS011;5622;50.840;4.948;2023-03-23T02:36:14;4.30;;;3.53;;
11135;SDS011;5622;50.840;4.948;2023-03-23T02:38:51;4.57;;;3.40;;
11135;SDS011;5622;50.840;4.948;2023-03-23T02:41:25;7.47;;;3.57;;
11135;SDS011;5622;50.840;4.948;2023-03-23T02:43:57;6.00;;;3.70;;
11135;SDS011;5622;50.840;4.948;2023-03-23T02:46:39;4.00;;;3.50;;
11135;SDS011;5622;50.840;4.948;2023-03-23T02:49:09;4.03;;;3.63;;
11135;SDS011;5622;50.840;4.948;2023-03-23T02:51:43;5.73;;;3.57;;
11135;SDS011;5622;50.840;4.948;2023-03-23T02:54:12;4.73;;;3.30;;
11135;SDS011;5622;50.840;4.948;2023-03-23T02:56:43;4.77;;;3.33;;
11135;SDS011;5622;50.840;4.948;2023-03-23T02:59:11;5.13;;;3.50;;
11135;SDS011;5622;50.840;4.948;2023-03-23T03:01:51;4.10;;;3.30;;
11135;SDS011;5622;50.840;4.948;2023-03-23T03:04:25;5.80;;;3.33;;
11135;SDS011;5622;50.840;4.948;2023-03-23T03:07:00;4.40;;;3.63;;
11135;SDS011;5622;50.840;4.948;2023-03-23T03:09:37;3.97;;;3.57;;
11135;SDS011;5622;50.840;4.948;2023-03-23T03:12:13;5.40;;;3.30;;
11135;SDS011;5622;50.840;4.948;2023-03-23T03:14:49;5.03;;;2.80;;
11135;SDS011;5622;50.840;4.948;2023-03-23T03:17:24;3.77;;;2.77;;
11135;SDS011;5622;50.840;4.948;2023-03-23T03:19:54;5.33;;;3.00;;
11135;SDS011;5622;50.840;4.948;2023-03-23T03:22:29;2.87;;;2.53;;
11135;SDS011;5622;50.840;4.948;2023-03-23T03:24:57;4.90;;;2.90;;
11135;SDS011;5622;50.840;4.948;2023-03-23T03:27:26;3.47;;;2.70;;
11135;SDS011;5622;50.840;4.948;2023-03-23T03:29:57;6.77;;;3.00;;
11135;SDS011;5622;50.840;4.948;2023-03-23T03:32:29;4.27;;;3.33;;
11135;SDS011;5622;50.840;4.948;2023-03-23T03:35:03;4.97;;;3.13;;
11135;SDS011;5622;50.840;4.948;2023-03-23T03:37:33;3.83;;;2.77;;
11135;SDS011;5622;50.840;4.948;2023-03-23T03:40:03;4.50;;;2.90;;
11135;SDS011;5622;50.840;4.948;2023-03-23T03:42:36;4.00;;;2.90;;
11135;SDS011;5622;50.840;4.948;2023-03-23T03:45:04;5.53;;;2.90;;
11135;SDS011;5622;50.840;4.948;2023-03-23T03:47:33;4.50;;;2.43;;
11135;SDS011;5622;50.840;4.948;2023-03-23T03:50:00;5.23;;;3.23;;
11135;SDS011;5622;50.840;4.948;2023-03-23T03:52:29;4.53;;;2.63;;
11135;SDS011;5622;50.840;4.948;2023-03-23T03:54:57;4.37;;;2.87;;
11135;SDS011;5622;50.840;4.948;2023-03-23T03:57:24;3.77;;;2.63;;
11135;SDS011;5622;50.840;4.948;2023-03-23T03:59:51;3.87;;;2.80;;
11135;SDS011;5622;50.840;4.948;2023-03-23T04:02:18;3.67;;;2.57;;
11135;SDS011;5622;50.840;4.948;2023-03-23T04:04:52;5.13;;;2.80;;
11135;SDS011;5622;50.840;4.948;2023-03-23T04:07:20;3.73;;;2.67;;
11135;SDS011;5622;50.840;4.948;2023-03-23T04:09:51;4.10;;;3.10;;
11135;SDS011;5622;50.840;4.948;2023-03-23T04:12:18;5.57;;;2.97;;
11135;SDS011;5622;50.840;4.948;2023-03-23T04:14:45;4.40;;;2.80;;
11135;SDS011;5622;50.840;4.948;2023-03-23T04:17:12;3.10;;;2.37;;
11135;SDS011;5622;50.840;4.948;2023-03-23T04:19:40;4.40;;;2.40;;
11135;SDS011;5622;50.840;4.948;2023-03-23T04:22:07;4.03;;;2.57;;
11135;SDS011;5622;50.840;4.948;2023-03-23T04:24:35;6.40;;;2.80;;
11135;SDS011;5622;50.840;4.948;2023-03-23T04:27:02;6.73;;;3.13;;
11135;SDS011;5622;50.840;4.948;2023-03-23T04:29:30;7.50;;;3.20;;
11135;SDS011;5622;50.840;4.948;2023-03-23T04:31:58;6.67;;;2.70;;
11135;SDS011;5622;50.840;4.948;2023-03-23T04:34:26;4.07;;;2.50;;
11135;SDS011;5622;50.840;4.948;2023-03-23T04:36:59;5.20;;;2.27;;
11135;SDS011;5622;50.840;4.948;2023-03-23T04:39:26;4.07;;;2.43;;
11135;SDS011;5622;50.840;4.948;2023-03-23T04:41:55;5.83;;;2.33;;
11135;SDS011;5622;50.840;4.948;2023-03-23T04:44:26;4.80;;;2.53;;
11135;SDS011;5622;50.840;4.948;2023-03-23T04:46:54;4.47;;;2.17;;
11135;SDS011;5622;50.840;4.948;2023-03-23T04:49:21;6.83;;;2.43;;
11135;SDS011;5622;50.840;4.948;2023-03-23T04:51:48;6.47;;;2.47;;
11135;SDS011;5622;50.840;4.948;2023-03-23T04:54:16;5.87;;;2.63;;
11135;SDS011;5622;50.840;4.948;2023-03-23T04:56:43;3.00;;;1.87;;
11135;SDS011;5622;50.840;4.948;2023-03-23T04:59:12;4.60;;;1.87;;
11135;SDS011;5622;50.840;4.948;2023-03-23T05:01:40;11.63;;;2.73;;
11135;SDS011;5622;50.840;4.948;2023-03-23T05:04:10;7.17;;;2.67;;
11135;SDS011;5622;50.840;4.948;2023-03-23T05:06:38;5.50;;;2.40;;
11135;SDS011;5622;50.840;4.948;2023-03-23T05:09:06;4.23;;;2.33;;
11135;SDS011;5622;50.840;4.948;2023-03-23T05:11:33;4.07;;;2.60;;
11135;SDS011;5622;50.840;4.948;2023-03-23T05:14:00;3.33;;;2.00;;
11135;SDS011;5622;50.840;4.948;2023-03-23T05:16:30;5.07;;;2.23;;
11135;SDS011;5622;50.840;4.948;2023-03-23T05:18:57;4.77;;;2.23;;
11135;SDS011;5622;50.840;4.948;2023-03-23T05:21:24;4.23;;;2.30;;
11135;SDS011;5622;50.840;4.948;2023-03-23T05:23:53;2.43;;;2.13;;
11135;SDS011;5622;50.840;4.948;2023-03-23T05:26:20;4.93;;;2.40;;
11135;SDS011;5622;50.840;4.948;2023-03-23T05:28:50;5.40;;;2.23;;
11135;SDS011;5622;50.840;4.948;2023-03-23T05:31:18;4.67;;;2.20;;
11135;SDS011;5622;50.840;4.948;2023-03-23T05:33:47;7.77;;;2.70;;
11135;SDS011;5622;50.840;4.948;2023-03-23T05:36:14;6.63;;;2.37;;
11135;SDS011;5622;50.840;4.948;2023-03-23T05:38:41;3.33;;;2.23;;
11135;SDS011;5622;50.840;4.948;2023-03-23T05:41:10;6.10;;;2.20;;
11135;SDS011;5622;50.840;4.948;2023-03-23T05:43:37;6.70;;;2.60;;
11135;SDS011;5622;50.840;4.948;2023-03-23T05:46:04;6.17;;;2.20;;
11135;SDS011;5622;50.840;4.948;2023-03-23T05:48:32;6.43;;;2.40;;
11135;SDS011;5622;50.840;4.948;2023-03-23T05:51:00;5.70;;;2.43;;
11135;SDS011;5622;50.840;4.948;2023-03-23T05:53:27;5.90;;;2.43;;
11135;SDS011;5622;50.840;4.948;2023-03-23T05:55:57;5.20;;;2.37;;
11135;SDS011;5622;50.840;4.948;2023-03-23T05:58:25;4.33;;;2.00;;
11135;SDS011;5622;50.840;4.948;2023-03-23T06:00:53;5.00;;;2.60;;
11135;SDS011;5622;50.840;4.948;2023-03-23T06:03:20;3.80;;;2.10;;
11135;SDS011;5622;50.840;4.948;2023-03-23T06:05:47;4.70;;;2.20;;
11135;SDS011;5622;50.840;4.948;2023-03-23T06:08:16;4.23;;;2.30;;
11135;SDS011;5622;50.840;4.948;2023-03-23T06:10:44;3.90;;;2.10;;
11135;SDS011;5622;50.840;4.948;2023-03-23T06:13:11;5.03;;;2.63;;
11135;SDS011;5622;50.840;4.948;2023-03-23T06:15:38;4.93;;;2.40;;
11135;SDS011;5622;50.840;4.948;2023-03-23T06:18:05;2.67;;;1.70;;
11135;SDS011;5622;50.840;4.948;2023-03-23T06:20:33;4.37;;;2.03;;
11135;SDS011;5622;50.840;4.948;2023-03-23T06:23:00;3.67;;;2.20;;
11135;SDS011;5622;50.840;4.948;2023-03-23T06:25:31;4.40;;;2.17;;
11135;SDS011;5622;50.840;4.948;2023-03-23T06:27:59;5.83;;;2.30;;
11135;SDS011;5622;50.840;4.948;2023-03-23T06:30:27;4.50;;;2.47;;
11135;SDS011;5622;50.840;4.948;2023-03-23T06:32:54;4.97;;;2.30;;
11135;SDS011;5622;50.840;4.948;2023-03-23T06:35:22;3.77;;;2.33;;
11135;SDS011;5622;50.840;4.948;2023-03-23T06:37:49;4.67;;;2.10;;
11135;SDS011;5622;50.840;4.948;2023-03-23T06:40:18;5.23;;;2.50;;
11135;SDS011;5622;50.840;4.948;2023-03-23T06:42:48;8.87;;;2.67;;
11135;SDS011;5622;50.840;4.948;2023-03-23T06:45:15;4.27;;;2.50;;
11135;SDS011;5622;50.840;4.948;2023-03-23T06:47:44;5.90;;;2.40;;
11135;SDS011;5622;50.840;4.948;2023-03-23T06:50:13;4.00;;;2.43;;
11135;SDS011;5622;50.840;4.948;2023-03-23T06:52:44;6.03;;;2.27;;
11135;SDS011;5622;50.840;4.948;2023-03-23T06:55:11;5.53;;;2.40;;
11135;SDS011;5622;50.840;4.948;2023-03-23T06:57:39;7.53;;;3.00;;
11135;SDS011;5622;50.840;4.948;2023-03-23T07:00:09;5.97;;;2.37;;
11135;SDS011;5622;50.840;4.948;2023-03-23T07:02:38;7.07;;;2.53;;
11135;SDS011;5622;50.840;4.948;2023-03-23T07:05:06;5.07;;;2.50;;
11135;SDS011;5622;50.840;4.948;2023-03-23T07:07:34;5.17;;;2.20;;
11135;SDS011;5622;50.840;4.948;2023-03-23T07:10:01;6.57;;;2.37;;
11135;SDS011;5622;50.840;4.948;2023-03-23T07:12:29;7.40;;;2.30;;
11135;SDS011;5622;50.840;4.948;2023-03-23T07:14:56;7.00;;;2.50;;
11135;SDS011;5622;50.840;4.948;2023-03-23T07:17:24;3.93;;;2.30;;
11135;SDS011;5622;50.840;4.948;2023-03-23T07:19:52;7.10;;;2.60;;
11135;SDS011;5622;50.840;4.948;2023-03-23T07:22:19;6.23;;;2.20;;
11135;SDS011;5622;50.840;4.948;2023-03-23T07:24:46;4.77;;;2.43;;
11135;SDS011;5622;50.840;4.948;2023-03-23T07:27:14;3.70;;;2.03;;
11135;SDS011;5622;50.840;4.948;2023-03-23T07:29:41;6.57;;;1.90;;
11135;SDS011;5622;50.840;4.948;2023-03-23T07:32:10;4.27;;;2.37;;
11135;SDS011;5622;50.840;4.948;2023-03-23T07:34:39;5.77;;;2.40;;
11135;SDS011;5622;50.840;4.948;2023-03-23T07:37:06;5.63;;;2.80;;
11135;SDS011;5622;50.840;4.948;2023-03-23T07:39:34;4.83;;;2.13;;
11135;SDS011;5622;50.840;4.948;2023-03-23T07:42:02;3.30;;;2.20;;
11135;SDS011;5622;50.840;4.948;2023-03-23T07:44:32;6.07;;;2.20;;
11135;SDS011;5622;50.840;4.948;2023-03-23T07:46:59;6.80;;;2.40;;
11135;SDS011;5622;50.840;4.948;2023-03-23T07:49:26;5.87;;;2.80;;
11135;SDS011;5622;50.840;4.948;2023-03-23T07:51:57;8.03;;;2.47;;
11135;SDS011;5622;50.840;4.948;2023-03-23T07:54:26;6.27;;;2.57;;
11135;SDS011;5622;50.840;4.948;2023-03-23T07:56:54;7.63;;;2.47;;
11135;SDS011;5622;50.840;4.948;2023-03-23T07:59:21;8.33;;;2.57;;
11135;SDS011;5622;50.840;4.948;2023-03-23T08:01:48;3.37;;;2.20;;
11135;SDS011;5622;50.840;4.948;2023-03-23T08:04:15;6.13;;;2.40;;
11135;SDS011;5622;50.840;4.948;2023-03-23T08:06:42;6.63;;;2.63;;
11135;SDS011;5622;50.840;4.948;2023-03-23T08:09:11;4.57;;;2.27;;
11135;SDS011;5622;50.840;4.948;2023-03-23T08:11:38;6.57;;;2.50;;
11135;SDS011;5622;50.840;4.948;2023-03-23T08:14:05;5.27;;;2.30;;
11135;SDS011;5622;50.840;4.948;2023-03-23T08:16:33;6.13;;;2.37;;
11135;SDS011;5622;50.840;4.948;2023-03-23T08:19:00;6.67;;;2.63;;
11135;SDS011;5622;50.840;4.948;2023-03-23T08:21:30;5.17;;;2.40;;
11135;SDS011;5622;50.840;4.948;2023-03-23T08:23:57;3.77;;;2.20;;
11135;SDS011;5622;50.840;4.948;2023-03-23T08:26:26;4.70;;;2.60;;
11135;SDS011;5622;50.840;4.948;2023-03-23T08:28:53;5.70;;;2.40;;
11135;SDS011;5622;50.840;4.948;2023-03-23T08:31:20;5.70;;;2.27;;
11135;SDS011;5622;50.840;4.948;2023-03-23T08:33:47;6.73;;;3.10;;
11135;SDS011;5622;50.840;4.948;2023-03-23T08:36:14;5.77;;;2.70;;
11135;SDS011;5622;50.840;4.948;2023-03-23T08:38:41;7.40;;;2.40;;
11135;SDS011;5622;50.840;4.948;2023-03-23T08:41:09;4.00;;;2.60;;
11135;SDS011;5622;50.840;4.948;2023-03-23T08:43:38;3.30;;;1.93;;
11135;SDS011;5622;50.840;4.948;2023-03-23T08:46:05;5.50;;;2.83;;
11135;SDS011;5622;50.840;4.948;2023-03-23T08:48:35;3.63;;;2.63;;
11135;SDS011;5622;50.840;4.948;2023-03-23T08:51:03;4.80;;;2.40;;
11135;SDS011;5622;50.840;4.948;2023-03-23T08:53:32;3.83;;;2.10;;
11135;SDS011;5622;50.840;4.948;2023-03-23T08:56:02;3.90;;;1.90;;
11135;SDS011;5622;50.840;4.948;2023-03-23T08:58:30;2.30;;;1.50;;
11135;SDS011;5622;50.840;4.948;2023-03-23T09:00:59;2.60;;;1.60;;
11135;SDS011;5622;50.840;4.948;2023-03-23T09:03:26;3.17;;;1.53;;
11135;SDS011;5622;50.840;4.948;2023-03-23T09:05:57;3.67;;;1.40;;
11135;SDS011;5622;50.840;4.948;2023-03-23T09:08:26;2.97;;;1.50;;
11135;SDS011;5622;50.840;4.948;2023-03-23T09:10:54;2.60;;;1.70;;
11135;SDS011;5622;50.840;4.948;2023-03-23T09:13:21;3.23;;;1.83;;
11135;SDS011;5622;50.840;4.948;2023-03-23T09:15:49;4.40;;;1.83;;
11135;SDS011;5622;50.840;4.948;2023-03-23T09:18:18;6.87;;;1.43;;
11135;SDS011;5622;50.840;4.948;2023-03-23T09:20:46;4.60;;;1.87;;
11135;SDS011;5622;50.840;4.948;2023-03-23T09:23:16;4.73;;;1.40;;
11135;SDS011;5622;50.840;4.948;2023-03-23T09:25:43;2.10;;;1.63;;
11135;SDS011;5622;50.840;4.948;2023-03-23T09:28:11;1.50;;;1.40;;
11135;SDS011;5622;50.840;4.948;2023-03-23T09:30:39;1.33;;;1.23;;
11135;SDS011;5622;50.840;4.948;2023-03-23T09:33:07;2.10;;;1.27;;
11135;SDS011;5622;50.840;4.948;2023-03-23T09:35:36;1.67;;;1.37;;
11135;SDS011;5622;50.840;4.948;2023-03-23T09:38:07;2.73;;;1.43;;
11135;SDS011;5622;50.840;4.948;2023-03-23T09:40:38;3.47;;;1.30;;
11135;SDS011;5622;50.840;4.948;2023-03-23T09:46:12;2.07;;;1.20;;
11135;SDS011;5622;50.840;4.948;2023-03-23T09:48:51;2.43;;;1.40;;
11135;SDS011;5622;50.840;4.948;2023-03-23T09:51:34;2.00;;;1.80;;
11135;SDS011;5622;50.840;4.948;2023-03-23T09:54:10;3.43;;;1.77;;
11135;SDS011;5622;50.840;4.948;2023-03-23T09:56:43;3.00;;;1.97;;
11135;SDS011;5622;50.840;4.948;2023-03-23T09:59:14;4.57;;;1.83;;
11135;SDS011;5622;50.840;4.948;2023-03-23T10:01:47;3.80;;;1.90;;
11135;SDS011;5622;50.840;4.948;2023-03-23T10:04:21;3.03;;;1.87;;
11135;SDS011;5622;50.840;4.948;2023-03-23T10:06:58;5.87;;;1.80;;
11135;SDS011;5622;50.840;4.948;2023-03-23T10:09:31;2.13;;;1.60;;
11135;SDS011;5622;50.840;4.948;2023-03-23T10:12:00;3.20;;;1.60;;
11135;SDS011;5622;50.840;4.948;2023-03-23T10:14:46;4.53;;;1.70;;
11135;SDS011;5622;50.840;4.948;2023-03-23T10:17:26;6.17;;;1.87;;
11135;SDS011;5622;50.840;4.948;2023-03-23T10:20:00;3.57;;;1.60;;
11135;SDS011;5622;50.840;4.948;2023-03-23T10:22:52;4.93;;;1.80;;
11135;SDS011;5622;50.840;4.948;2023-03-23T10:25:25;5.60;;;2.60;;
11135;SDS011;5622;50.840;4.948;2023-03-23T10:27:58;3.47;;;2.73;;
11135;SDS011;5622;50.840;4.948;2023-03-23T10:30:31;6.20;;;3.10;;
11135;SDS011;5622;50.840;4.948;2023-03-23T10:33:02;4.80;;;3.33;;
11135;SDS011;5622;50.840;4.948;2023-03-23T10:35:33;6.70;;;4.27;;
11135;SDS011;5622;50.840;4.948;2023-03-23T10:38:06;7.53;;;3.60;;
11135;SDS011;5622;50.840;4.948;2023-03-23T10:40:44;6.57;;;4.43;;
11135;SDS011;5622;50.840;4.948;2023-03-23T10:43:15;8.30;;;5.17;;
11135;SDS011;5622;50.840;4.948;2023-03-23T10:45:44;5.70;;;4.50;;
11135;SDS011;5622;50.840;4.948;2023-03-23T10:48:16;7.00;;;4.10;;
11135;SDS011;5622;50.840;4.948;2023-03-23T10:50:48;5.33;;;3.50;;
11135;SDS011;5622;50.840;4.948;2023-03-23T10:53:21;4.33;;;3.13;;
11135;SDS011;5622;50.840;4.948;2023-03-23T10:55:49;5.53;;;3.13;;
11135;SDS011;5622;50.840;4.948;2023-03-23T10:58:22;5.13;;;2.90;;
11135;SDS011;5622;50.840;4.948;2023-03-23T11:00:50;6.30;;;3.13;;
11135;SDS011;5622;50.840;4.948;2023-03-23T11:03:23;3.93;;;2.57;;
11135;SDS011;5622;50.840;4.948;2023-03-23T11:05:55;7.73;;;2.17;;
11135;SDS011;5622;50.840;4.948;2023-03-23T11:08:26;3.80;;;2.40;;
11135;SDS011;5622;50.840;4.948;2023-03-23T11:10:57;5.70;;;2.50;;
11135;SDS011;5622;50.840;4.948;2023-03-23T11:13:28;5.13;;;2.27;;
11135;SDS011;5622;50.840;4.948;2023-03-23T11:15:57;4.20;;;2.30;;
11135;SDS011;5622;50.840;4.948;2023-03-23T11:18:26;4.97;;;2.10;;
11135;SDS011;5622;50.840;4.948;2023-03-23T11:21:02;3.67;;;2.10;;
11135;SDS011;5622;50.840;4.948;2023-03-23T11:23:33;5.97;;;2.17;;
11135;SDS011;5622;50.840;4.948;2023-03-23T11:26:13;5.53;;;3.27;;
11135;SDS011;5622;50.840;4.948;2023-03-23T11:28:43;4.73;;;2.80;;
11135;SDS011;5622;50.840;4.948;2023-03-23T11:31:12;5.27;;;2.70;;
11135;SDS011;5622;50.840;4.948;2023-03-23T11:33:41;6.13;;;3.27;;
11135;SDS011;5622;50.840;4.948;2023-03-23T11:36:15;6.40;;;3.40;;
11135;SDS011;5622;50.840;4.948;2023-03-23T11:38:44;5.80;;;3.23;;
11135;SDS011;5622;50.840;4.948;2023-03-23T11:41:12;7.27;;;3.37;;
11135;SDS011;5622;50.840;4.948;2023-03-23T11:43:45;7.13;;;2.83;;
11135;SDS011;5622;50.840;4.948;2023-03-23T11:46:16;5.03;;;3.03;;
11135;SDS011;5622;50.840;4.948;2023-03-23T11:49:01;6.20;;;3.17;;
11135;SDS011;5622;50.840;4.948;2023-03-23T11:51:33;7.43;;;2.93;;
11135;SDS011;5622;50.840;4.948;2023-03-23T11:54:09;7.30;;;3.30;;
11135;SDS011;5622;50.840;4.948;2023-03-23T11:56:42;4.00;;;3.10;;
11135;SDS011;5622;50.840;4.948;2023-03-23T11:59:12;9.17;;;3.37;;
11135;SDS011;5622;50.840;4.948;2023-03-23T12:01:46;4.90;;;2.93;;
11135;SDS011;5622;50.840;4.948;2023-03-23T12:04:35;5.20;;;2.80;;
11135;SDS011;5622;50.840;4.948;2023-03-23T12:07:15;5.33;;;3.07;;
11135;SDS011;5622;50.840;4.948;2023-03-23T12:10:01;6.07;;;2.90;;
11135;SDS011;5622;50.840;4.948;2023-03-23T12:12:37;8.27;;;2.90;;
11135;SDS011;5622;50.840;4.948;2023-03-23T12:15:19;6.63;;;2.57;;
11135;SDS011;5622;50.840;4.948;2023-03-23T12:17:54;6.67;;;3.23;;
11135;SDS011;5622;50.840;4.948;2023-03-23T12:20:31;3.27;;;2.17;;
11135;SDS011;5622;50.840;4.948;2023-03-23T12:23:10;7.23;;;2.60;;
11135;SDS011;5622;50.840;4.948;2023-03-23T12:25:52;5.33;;;2.50;;
11135;SDS011;5622;50.840;4.948;2023-03-23T12:28:32;7.20;;;2.23;;
11135;SDS011;5622;50.840;4.948;2023-03-23T12:31:09;5.27;;;2.20;;
11135;SDS011;5622;50.840;4.948;2023-03-23T12:33:45;5.43;;;2.23;;
11135;SDS011;5622;50.840;4.948;2023-03-23T12:36:24;5.17;;;2.27;;
11135;SDS011;5622;50.840;4.948;2023-03-23T12:39:04;5.40;;;2.50;;
11135;SDS011;5622;50.840;4.948;2023-03-23T12:41:41;4.80;;;2.60;;
11135;SDS011;5622;50.840;4.948;2023-03-23T12:44:16;5.47;;;2.83;;
11135;SDS011;5622;50.840;4.948;2023-03-23T12:46:50;7.33;;;2.57;;
11135;SDS011;5622;50.840;4.948;2023-03-23T12:49:34;7.77;;;2.90;;
11135;SDS011;5622;50.840;4.948;2023-03-23T12:52:09;9.63;;;2.73;;
11135;SDS011;5622;50.840;4.948;2023-03-23T12:54:41;9.97;;;2.90;;
11135;SDS011;5622;50.840;4.948;2023-03-23T12:57:19;7.67;;;3.27;;
11135;SDS011;5622;50.840;4.948;2023-03-23T12:59:53;5.17;;;2.70;;
11135;SDS011;5622;50.840;4.948;2023-03-23T13:02:23;5.53;;;2.50;;
11135;SDS011;5622;50.840;4.948;2023-03-23T13:04:57;8.40;;;2.83;;
11135;SDS011;5622;50.840;4.948;2023-03-23T13:07:29;11.90;;;4.63;;
11135;SDS011;5622;50.840;4.948;2023-03-23T13:10:01;10.53;;;3.87;;
11135;SDS011;5622;50.840;4.948;2023-03-23T13:12:33;16.57;;;9.60;;
11135;SDS011;5622;50.840;4.948;2023-03-23T13:15:06;18.37;;;8.13;;
11135;SDS011;5622;50.840;4.948;2023-03-23T13:17:47;16.47;;;8.00;;
11135;SDS011;5622;50.840;4.948;2023-03-23T13:20:27;18.10;;;4.87;;
11135;SDS011;5622;50.840;4.948;2023-03-23T13:23:13;10.30;;;3.27;;
11135;SDS011;5622;50.840;4.948;2023-03-23T13:25:49;7.13;;;2.87;;
11135;SDS011;5622;50.840;4.948;2023-03-23T13:28:21;5.97;;;2.67;;
11135;SDS011;5622;50.840;4.948;2023-03-23T13:30:58;8.80;;;2.63;;
11135;SDS011;5622;50.840;4.948;2023-03-23T13:33:34;11.80;;;3.53;;
11135;SDS011;5622;50.840;4.948;2023-03-23T13:36:03;7.43;;;3.10;;
11135;SDS011;5622;50.840;4.948;2023-03-23T13:38:35;7.87;;;3.30;;
11135;SDS011;5622;50.840;4.948;2023-03-23T13:41:10;9.43;;;3.97;;
11135;SDS011;5622;50.840;4.948;2023-03-23T13:43:41;9.37;;;3.90;;
11135;SDS011;5622;50.840;4.948;2023-03-23T13:46:23;9.83;;;3.67;;
11135;SDS011;5622;50.840;4.948;2023-03-23T13:49:03;7.30;;;3.63;;
11135;SDS011;5622;50.840;4.948;2023-03-23T13:51:51;10.47;;;4.03;;
11135;SDS011;5622;50.840;4.948;2023-03-23T13:54:39;8.87;;;4.10;;
11135;SDS011;5622;50.840;4.948;2023-03-23T13:57:32;9.17;;;4.30;;
11135;SDS011;5622;50.840;4.948;2023-03-23T14:00:11;8.57;;;4.17;;
11135;SDS011;5622;50.840;4.948;2023-03-23T14:02:58;8.77;;;4.30;;
11135;SDS011;5622;50.840;4.948;2023-03-23T14:05:31;7.63;;;4.20;;
11135;SDS011;5622;50.840;4.948;2023-03-23T14:08:01;9.33;;;4.20;;
11135;SDS011;5622;50.840;4.948;2023-03-23T14:10:36;12.77;;;4.60;;
11135;SDS011;5622;50.840;4.948;2023-03-23T14:13:10;9.43;;;3.53;;
11135;SDS011;5622;50.840;4.948;2023-03-23T14:15:45;7.40;;;3.90;;
11135;SDS011;5622;50.840;4.948;2023-03-23T14:18:23;8.50;;;4.00;;
11135;SDS011;5622;50.840;4.948;2023-03-23T14:20:55;9.47;;;3.57;;
11135;SDS011;5622;50.840;4.948;2023-03-23T14:23:23;8.10;;;3.80;;
11135;SDS011;5622;50.840;4.948;2023-03-23T14:25:54;7.30;;;3.73;;
11135;SDS011;5622;50.840;4.948;2023-03-23T14:28:23;8.17;;;3.77;;
11135;SDS011;5622;50.840;4.948;2023-03-23T14:30:59;9.00;;;3.90;;
11135;SDS011;5622;50.840;4.948;2023-03-23T14:33:26;9.13;;;4.30;;
11135;SDS011;5622;50.840;4.948;2023-03-23T14:35:54;9.87;;;4.47;;
11135;SDS011;5622;50.840;4.948;2023-03-23T14:38:24;8.23;;;4.20;;
11135;SDS011;5622;50.840;4.948;2023-03-23T14:40:59;10.50;;;4.50;;
11135;SDS011;5622;50.840;4.948;2023-03-23T14:43:27;9.03;;;4.30;;
11135;SDS011;5622;50.840;4.948;2023-03-23T14:45:57;16.37;;;4.60;;
11135;SDS011;5622;50.840;4.948;2023-03-23T14:48:27;10.70;;;4.53;;
11135;SDS011;5622;50.840;4.948;2023-03-23T14:50:56;7.87;;;4.97;;
11135;SDS011;5622;50.840;4.948;2023-03-23T14:53:29;6.70;;;4.00;;
11135;SDS011;5622;50.840;4.948;2023-03-23T14:55:59;6.17;;;4.37;;
11135;SDS011;5622;50.840;4.948;2023-03-23T14:58:29;7.57;;;4.20;;
11135;SDS011;5622;50.840;4.948;2023-03-23T15:00:58;8.20;;;4.40;;
11135;SDS011;5622;50.840;4.948;2023-03-23T15:03:31;10.33;;;4.67;;
11135;SDS011;5622;50.840;4.948;2023-03-23T15:06:06;9.23;;;4.40;;
11135;SDS011;5622;50.840;4.948;2023-03-23T15:08:38;11.33;;;3.63;;
11135;SDS011;5622;50.840;4.948;2023-03-23T15:11:07;13.63;;;3.67;;
11135;SDS011;5622;50.840;4.948;2023-03-23T15:13:42;8.07;;;3.73;;
11135;SDS011;5622;50.840;4.948;2023-03-23T15:16:14;10.03;;;3.20;;
11135;SDS011;5622;50.840;4.948;2023-03-23T15:18:49;8.27;;;3.50;;
11135;SDS011;5622;50.840;4.948;2023-03-23T15:21:22;6.53;;;2.60;;
11135;SDS011;5622;50.840;4.948;2023-03-23T15:23:56;6.67;;;3.27;;
11135;SDS011;5622;50.840;4.948;2023-03-23T15:26:28;4.03;;;2.63;;
11135;SDS011;5622;50.840;4.948;2023-03-23T15:29:13;6.93;;;2.80;;
11135;SDS011;5622;50.840;4.948;2023-03-23T15:31:45;6.37;;;3.37;;
11135;SDS011;5622;50.840;4.948;2023-03-23T15:34:19;8.30;;;3.30;;